sensor_id;sensor_type;location;lat;lon;timestamp;P1;durP1;ratioP1;P2;durP2;ratioP2
72235;SDS011;60146;52.498;13.462;2023-07-13T00:00:23;3.15;;;1.60;;
72235;SDS011;60146;52.498;13.462;2023-07-13T00:02:48;3.70;;;1.67;;
72235;SDS011;60146;52.498;13.462;2023-07-13T00:05:13;4.75;;;1.90;;
72235;SDS011;60146;52.498;13.462;2023-07-13T00:07:39;6.28;;;1.85;;
72235;SDS011;60146;52.498;13.462;2023-07-13T00:10:04;3.95;;;2.00;;
72235;SDS011;60146;52.498;13.462;2023-07-13T00:12:33;4.03;;;1.83;;
72235;SDS011;60146;52.498;13.462;2023-07-13T00:15:02;3.90;;;1.90;;
72235;SDS011;60146;52.498;13.462;2023-07-13T00:17:31;4.55;;;2.17;;
72235;SDS011;60146;52.498;13.462;2023-07-13T00:19:57;3.80;;;2.05;;
72235;SDS011;60146;52.498;13.462;2023-07-13T00:22:23;5.60;;;2.28;;
72235;SDS011;60146;52.498;13.462;2023-07-13T00:24:51;5.00;;;2.50;;
72235;SDS011;60146;52.498;13.462;2023-07-13T00:27:17;4.90;;;1.90;;
72235;SDS011;60146;52.498;13.462;2023-07-13T00:29:43;6.07;;;2.20;;
72235;SDS011;60146;52.498;13.462;2023-07-13T00:32:09;5.25;;;2.40;;
72235;SDS011;60146;52.498;13.462;2023-07-13T00:34:36;3.90;;;2.00;;
72235;SDS011;60146;52.498;13.462;2023-07-13T00:37:02;5.43;;;2.25;;
72235;SDS011;60146;52.498;13.462;2023-07-13T00:39:27;5.65;;;2.20;;
72235;SDS011;60146;52.498;13.462;2023-07-13T00:41:53;6.53;;;2.42;;
72235;SDS011;60146;52.498;13.462;2023-07-13T00:44:18;4.53;;;2.35;;
72235;SDS011;60146;52.498;13.462;2023-07-13T00:46:44;5.35;;;2.60;;
72235;SDS011;60146;52.498;13.462;2023-07-13T00:49:11;4.03;;;2.08;;
72235;SDS011;60146;52.498;13.462;2023-07-13T00:51:40;6.43;;;1.97;;
72235;SDS011;60146;52.498;13.462;2023-07-13T00:54:13;3.90;;;2.08;;
72235;SDS011;60146;52.498;13.462;2023-07-13T00:56:43;5.10;;;2.25;;
72235;SDS011;60146;52.498;13.462;2023-07-13T00:59:11;4.85;;;1.92;;
72235;SDS011;60146;52.498;13.462;2023-07-13T01:01:40;4.30;;;1.98;;
72235;SDS011;60146;52.498;13.462;2023-07-13T01:04:05;4.68;;;2.28;;
72235;SDS011;60146;52.498;13.462;2023-07-13T01:06:33;4.40;;;2.17;;
72235;SDS011;60146;52.498;13.462;2023-07-13T01:09:00;5.78;;;2.05;;
72235;SDS011;60146;52.498;13.462;2023-07-13T01:11:27;4.47;;;1.92;;
72235;SDS011;60146;52.498;13.462;2023-07-13T01:13:53;3.03;;;1.75;;
72235;SDS011;60146;52.498;13.462;2023-07-13T01:16:24;2.42;;;1.60;;
72235;SDS011;60146;52.498;13.462;2023-07-13T01:18:51;3.95;;;1.90;;
72235;SDS011;60146;52.498;13.462;2023-07-13T01:21:16;6.15;;;2.35;;
72235;SDS011;60146;52.498;13.462;2023-07-13T01:23:43;5.60;;;1.70;;
72235;SDS011;60146;52.498;13.462;2023-07-13T01:26:09;3.50;;;1.80;;
72235;SDS011;60146;52.498;13.462;2023-07-13T01:28:35;5.45;;;2.00;;
72235;SDS011;60146;52.498;13.462;2023-07-13T01:31:02;5.43;;;2.10;;
72235;SDS011;60146;52.498;13.462;2023-07-13T01:33:28;4.57;;;2.00;;
72235;SDS011;60146;52.498;13.462;2023-07-13T01:35:53;5.15;;;1.70;;
72235;SDS011;60146;52.498;13.462;2023-07-13T01:38:21;6.20;;;2.17;;
72235;SDS011;60146;52.498;13.462;2023-07-13T01:40:48;7.10;;;2.17;;
72235;SDS011;60146;52.498;13.462;2023-07-13T01:43:13;4.93;;;1.65;;
72235;SDS011;60146;52.498;13.462;2023-07-13T01:45:39;5.13;;;1.80;;
72235;SDS011;60146;52.498;13.462;2023-07-13T01:48:04;5.13;;;1.95;;
72235;SDS011;60146;52.498;13.462;2023-07-13T01:50:32;6.00;;;2.08;;
72235;SDS011;60146;52.498;13.462;2023-07-13T01:52:58;7.13;;;2.08;;
72235;SDS011;60146;52.498;13.462;2023-07-13T01:55:23;6.60;;;2.00;;
72235;SDS011;60146;52.498;13.462;2023-07-13T01:57:48;4.28;;;1.98;;
72235;SDS011;60146;52.498;13.462;2023-07-13T02:00:14;5.82;;;2.20;;
72235;SDS011;60146;52.498;13.462;2023-07-13T02:02:40;5.22;;;2.00;;
72235;SDS011;60146;52.498;13.462;2023-07-13T02:05:06;4.82;;;2.03;;
72235;SDS011;60146;52.498;13.462;2023-07-13T02:07:32;8.70;;;2.05;;
72235;SDS011;60146;52.498;13.462;2023-07-13T02:09:57;3.95;;;1.80;;
72235;SDS011;60146;52.498;13.462;2023-07-13T02:12:23;5.22;;;2.20;;
72235;SDS011;60146;52.498;13.462;2023-07-13T02:14:48;5.38;;;2.30;;
72235;SDS011;60146;52.498;13.462;2023-07-13T02:17:13;5.23;;;2.27;;
72235;SDS011;60146;52.498;13.462;2023-07-13T02:19:39;4.77;;;2.10;;
72235;SDS011;60146;52.498;13.462;2023-07-13T02:22:06;6.35;;;2.08;;
72235;SDS011;60146;52.498;13.462;2023-07-13T02:24:31;3.90;;;2.00;;
72235;SDS011;60146;52.498;13.462;2023-07-13T02:26:57;5.38;;;2.13;;
72235;SDS011;60146;52.498;13.462;2023-07-13T02:29:23;4.73;;;2.17;;
72235;SDS011;60146;52.498;13.462;2023-07-13T02:31:48;5.15;;;2.10;;
72235;SDS011;60146;52.498;13.462;2023-07-13T02:34:13;4.88;;;2.03;;
72235;SDS011;60146;52.498;13.462;2023-07-13T02:36:39;2.23;;;1.70;;
72235;SDS011;60146;52.498;13.462;2023-07-13T02:39:06;3.35;;;2.20;;
72235;SDS011;60146;52.498;13.462;2023-07-13T02:41:32;6.23;;;2.30;;
72235;SDS011;60146;52.498;13.462;2023-07-13T02:43:58;3.07;;;2.37;;
72235;SDS011;60146;52.498;13.462;2023-07-13T02:46:35;4.97;;;1.97;;
72235;SDS011;60146;52.498;13.462;2023-07-13T02:49:01;4.90;;;2.40;;
72235;SDS011;60146;52.498;13.462;2023-07-13T02:51:27;4.57;;;2.40;;
72235;SDS011;60146;52.498;13.462;2023-07-13T02:53:53;4.00;;;2.33;;
72235;SDS011;60146;52.498;13.462;2023-07-13T02:56:22;4.23;;;2.47;;
72235;SDS011;60146;52.498;13.462;2023-07-13T02:58:49;5.73;;;2.30;;
72235;SDS011;60146;52.498;13.462;2023-07-13T03:01:14;4.53;;;2.50;;
72235;SDS011;60146;52.498;13.462;2023-07-13T03:03:43;3.90;;;2.10;;
72235;SDS011;60146;52.498;13.462;2023-07-13T03:06:08;5.33;;;2.40;;
72235;SDS011;60146;52.498;13.462;2023-07-13T03:08:33;4.43;;;2.27;;
72235;SDS011;60146;52.498;13.462;2023-07-13T03:11:00;3.97;;;2.20;;
72235;SDS011;60146;52.498;13.462;2023-07-13T03:13:25;4.57;;;2.57;;
72235;SDS011;60146;52.498;13.462;2023-07-13T03:15:51;5.97;;;2.50;;
72235;SDS011;60146;52.498;13.462;2023-07-13T03:18:16;5.47;;;2.47;;
72235;SDS011;60146;52.498;13.462;2023-07-13T03:20:41;4.60;;;2.27;;
72235;SDS011;60146;52.498;13.462;2023-07-13T03:23:07;2.97;;;2.20;;
72235;SDS011;60146;52.498;13.462;2023-07-13T03:25:32;8.10;;;2.50;;
72235;SDS011;60146;52.498;13.462;2023-07-13T03:27:58;2.57;;;2.10;;
72235;SDS011;60146;52.498;13.462;2023-07-13T03:30:23;5.27;;;2.30;;
72235;SDS011;60146;52.498;13.462;2023-07-13T03:32:48;4.90;;;2.40;;
72235;SDS011;60146;52.498;13.462;2023-07-13T03:35:14;4.50;;;2.30;;
72235;SDS011;60146;52.498;13.462;2023-07-13T03:37:39;5.30;;;2.37;;
72235;SDS011;60146;52.498;13.462;2023-07-13T03:40:07;5.83;;;2.50;;
72235;SDS011;60146;52.498;13.462;2023-07-13T03:42:34;5.17;;;2.10;;
72235;SDS011;60146;52.498;13.462;2023-07-13T03:45:00;3.50;;;2.30;;
72235;SDS011;60146;52.498;13.462;2023-07-13T03:47:25;3.90;;;2.13;;
72235;SDS011;60146;52.498;13.462;2023-07-13T03:49:51;4.87;;;2.17;;
72235;SDS011;60146;52.498;13.462;2023-07-13T03:52:16;5.07;;;2.53;;
72235;SDS011;60146;52.498;13.462;2023-07-13T03:54:41;4.03;;;2.37;;
72235;SDS011;60146;52.498;13.462;2023-07-13T03:57:07;4.87;;;2.47;;
72235;SDS011;60146;52.498;13.462;2023-07-13T03:59:38;3.83;;;2.30;;
72235;SDS011;60146;52.498;13.462;2023-07-13T04:02:04;4.27;;;2.40;;
72235;SDS011;60146;52.498;13.462;2023-07-13T04:04:30;5.72;;;2.60;;
72235;SDS011;60146;52.498;13.462;2023-07-13T04:06:56;2.57;;;2.00;;
72235;SDS011;60146;52.498;13.462;2023-07-13T04:09:23;3.63;;;1.77;;
72235;SDS011;60146;52.498;13.462;2023-07-13T04:11:49;5.35;;;2.13;;
72235;SDS011;60146;52.498;13.462;2023-07-13T04:14:14;2.17;;;1.73;;
72235;SDS011;60146;52.498;13.462;2023-07-13T04:16:40;3.10;;;2.00;;
72235;SDS011;60146;52.498;13.462;2023-07-13T04:19:05;3.20;;;1.83;;
72235;SDS011;60146;52.498;13.462;2023-07-13T04:21:31;4.25;;;1.92;;
72235;SDS011;60146;52.498;13.462;2023-07-13T04:23:56;4.10;;;1.70;;
72235;SDS011;60146;52.498;13.462;2023-07-13T04:26:22;2.83;;;1.90;;
72235;SDS011;60146;52.498;13.462;2023-07-13T04:28:59;4.22;;;1.75;;
72235;SDS011;60146;52.498;13.462;2023-07-13T04:31:39;2.08;;;1.80;;
72235;SDS011;60146;52.498;13.462;2023-07-13T04:34:07;4.60;;;2.10;;
72235;SDS011;60146;52.498;13.462;2023-07-13T04:36:33;5.90;;;2.08;;
72235;SDS011;60146;52.498;13.462;2023-07-13T04:38:58;4.93;;;1.95;;
72235;SDS011;60146;52.498;13.462;2023-07-13T04:41:23;8.30;;;4.38;;
72235;SDS011;60146;52.498;13.462;2023-07-13T04:43:49;5.00;;;2.22;;
72235;SDS011;60146;52.498;13.462;2023-07-13T04:46:15;8.07;;;2.30;;
72235;SDS011;60146;52.498;13.462;2023-07-13T04:48:43;3.60;;;1.88;;
72235;SDS011;60146;52.498;13.462;2023-07-13T04:51:08;3.83;;;2.17;;
72235;SDS011;60146;52.498;13.462;2023-07-13T04:53:34;6.22;;;1.90;;
72235;SDS011;60146;52.498;13.462;2023-07-13T04:56:00;3.65;;;2.08;;
72235;SDS011;60146;52.498;13.462;2023-07-13T04:58:27;5.10;;;1.98;;
72235;SDS011;60146;52.498;13.462;2023-07-13T05:00:53;2.88;;;1.70;;
72235;SDS011;60146;52.498;13.462;2023-07-13T05:03:25;3.38;;;1.73;;
72235;SDS011;60146;52.498;13.462;2023-07-13T05:06:00;3.83;;;1.80;;
72235;SDS011;60146;52.498;13.462;2023-07-13T05:08:27;4.10;;;1.85;;
72235;SDS011;60146;52.498;13.462;2023-07-13T05:10:53;2.92;;;1.55;;
72235;SDS011;60146;52.498;13.462;2023-07-13T05:13:19;3.42;;;1.83;;
72235;SDS011;60146;52.498;13.462;2023-07-13T05:15:45;3.80;;;1.70;;
72235;SDS011;60146;52.498;13.462;2023-07-13T05:18:10;3.38;;;1.75;;
72235;SDS011;60146;52.498;13.462;2023-07-13T05:20:36;4.45;;;1.67;;
72235;SDS011;60146;52.498;13.462;2023-07-13T05:23:01;3.95;;;1.88;;
72235;SDS011;60146;52.498;13.462;2023-07-13T05:25:26;2.47;;;1.73;;
72235;SDS011;60146;52.498;13.462;2023-07-13T05:27:52;4.72;;;1.50;;
72235;SDS011;60146;52.498;13.462;2023-07-13T05:30:17;7.43;;;1.80;;
72235;SDS011;60146;52.498;13.462;2023-07-13T05:32:42;5.28;;;1.85;;
72235;SDS011;60146;52.498;13.462;2023-07-13T05:35:08;3.55;;;1.60;;
72235;SDS011;60146;52.498;13.462;2023-07-13T05:37:33;5.90;;;1.80;;
72235;SDS011;60146;52.498;13.462;2023-07-13T05:39:59;3.35;;;1.60;;
72235;SDS011;60146;52.498;13.462;2023-07-13T05:42:24;4.38;;;1.60;;
72235;SDS011;60146;52.498;13.462;2023-07-13T05:44:50;3.65;;;1.42;;
72235;SDS011;60146;52.498;13.462;2023-07-13T05:47:15;4.28;;;1.60;;
72235;SDS011;60146;52.498;13.462;2023-07-13T05:49:41;4.28;;;1.65;;
72235;SDS011;60146;52.498;13.462;2023-07-13T05:52:06;3.72;;;1.77;;
72235;SDS011;60146;52.498;13.462;2023-07-13T05:54:32;4.30;;;1.70;;
72235;SDS011;60146;52.498;13.462;2023-07-13T05:56:57;3.75;;;1.58;;
72235;SDS011;60146;52.498;13.462;2023-07-13T05:59:22;2.55;;;1.60;;
72235;SDS011;60146;52.498;13.462;2023-07-13T06:01:48;3.17;;;1.67;;
72235;SDS011;60146;52.498;13.462;2023-07-13T06:04:14;3.22;;;1.73;;
72235;SDS011;60146;52.498;13.462;2023-07-13T06:06:39;4.47;;;2.20;;
72235;SDS011;60146;52.498;13.462;2023-07-13T06:09:05;4.22;;;1.80;;
72235;SDS011;60146;52.498;13.462;2023-07-13T06:11:30;5.70;;;2.10;;
72235;SDS011;60146;52.498;13.462;2023-07-13T06:13:56;4.45;;;2.00;;
72235;SDS011;60146;52.498;13.462;2023-07-13T06:16:22;3.55;;;1.80;;
72235;SDS011;60146;52.498;13.462;2023-07-13T06:18:47;3.70;;;2.22;;
72235;SDS011;60146;52.498;13.462;2023-07-13T06:21:14;3.25;;;1.77;;
72235;SDS011;60146;52.498;13.462;2023-07-13T06:23:46;4.95;;;1.95;;
72235;SDS011;60146;52.498;13.462;2023-07-13T06:26:14;6.53;;;2.28;;
72235;SDS011;60146;52.498;13.462;2023-07-13T06:28:40;4.80;;;2.15;;
72235;SDS011;60146;52.498;13.462;2023-07-13T06:31:07;4.03;;;2.13;;
72235;SDS011;60146;52.498;13.462;2023-07-13T06:33:33;5.63;;;2.15;;
72235;SDS011;60146;52.498;13.462;2023-07-13T06:35:59;8.73;;;2.30;;
72235;SDS011;60146;52.498;13.462;2023-07-13T06:38:24;10.10;;;2.85;;
72235;SDS011;60146;52.498;13.462;2023-07-13T06:40:50;8.57;;;2.45;;
72235;SDS011;60146;52.498;13.462;2023-07-13T06:43:15;7.45;;;1.83;;
72235;SDS011;60146;52.498;13.462;2023-07-13T06:45:42;3.40;;;1.83;;
72235;SDS011;60146;52.498;13.462;2023-07-13T06:50:39;5.80;;;1.77;;
72235;SDS011;60146;52.498;13.462;2023-07-13T06:53:05;4.43;;;1.90;;
72235;SDS011;60146;52.498;13.462;2023-07-13T06:55:31;4.85;;;2.10;;
72235;SDS011;60146;52.498;13.462;2023-07-13T06:57:57;6.28;;;2.42;;
72235;SDS011;60146;52.498;13.462;2023-07-13T07:01:08;4.20;;;1.88;;
72235;SDS011;60146;52.498;13.462;2023-07-13T07:03:11;4.47;;;1.80;;
72235;SDS011;60146;52.498;13.462;2023-07-13T07:05:37;3.38;;;1.70;;
72235;SDS011;60146;52.498;13.462;2023-07-13T07:08:02;4.05;;;1.77;;
72235;SDS011;60146;52.498;13.462;2023-07-13T07:10:29;4.85;;;2.00;;
72235;SDS011;60146;52.498;13.462;2023-07-13T07:12:55;5.55;;;1.77;;
72235;SDS011;60146;52.498;13.462;2023-07-13T07:15:20;4.60;;;1.63;;
72235;SDS011;60146;52.498;13.462;2023-07-13T07:17:46;3.75;;;1.67;;
72235;SDS011;60146;52.498;13.462;2023-07-13T07:20:11;3.67;;;1.75;;
72235;SDS011;60146;52.498;13.462;2023-07-13T07:22:37;6.00;;;1.60;;
72235;SDS011;60146;52.498;13.462;2023-07-13T07:25:02;3.97;;;1.70;;
72235;SDS011;60146;52.498;13.462;2023-07-13T07:27:28;3.05;;;1.30;;
72235;SDS011;60146;52.498;13.462;2023-07-13T07:29:53;2.78;;;1.38;;
72235;SDS011;60146;52.498;13.462;2023-07-13T07:32:19;3.65;;;1.25;;
72235;SDS011;60146;52.498;13.462;2023-07-13T07:34:45;3.28;;;1.52;;
72235;SDS011;60146;52.498;13.462;2023-07-13T07:37:12;2.88;;;1.30;;
72235;SDS011;60146;52.498;13.462;2023-07-13T07:39:38;3.38;;;1.35;;
72235;SDS011;60146;52.498;13.462;2023-07-13T07:42:04;4.47;;;1.10;;
72235;SDS011;60146;52.498;13.462;2023-07-13T07:44:30;3.92;;;1.20;;
72235;SDS011;60146;52.498;13.462;2023-07-13T07:46:56;5.18;;;1.83;;
72235;SDS011;60146;52.498;13.462;2023-07-13T07:49:22;3.33;;;1.35;;
72235;SDS011;60146;52.498;13.462;2023-07-13T07:51:47;4.53;;;1.20;;
72235;SDS011;60146;52.498;13.462;2023-07-13T07:54:13;4.15;;;1.20;;
72235;SDS011;60146;52.498;13.462;2023-07-13T07:56:39;2.95;;;1.10;;
72235;SDS011;60146;52.498;13.462;2023-07-13T07:59:05;2.22;;;1.13;;
72235;SDS011;60146;52.498;13.462;2023-07-13T08:01:30;1.85;;;1.23;;
72235;SDS011;60146;52.498;13.462;2023-07-13T08:03:56;3.40;;;1.67;;
72235;SDS011;60146;52.498;13.462;2023-07-13T08:06:21;2.88;;;1.38;;
72235;SDS011;60146;52.498;13.462;2023-07-13T08:08:48;1.90;;;1.20;;
72235;SDS011;60146;52.498;13.462;2023-07-13T08:11:13;4.13;;;1.83;;
72235;SDS011;60146;52.498;13.462;2023-07-13T08:13:38;4.30;;;1.40;;
72235;SDS011;60146;52.498;13.462;2023-07-13T08:16:04;2.70;;;1.20;;
72235;SDS011;60146;52.498;13.462;2023-07-13T08:18:30;3.33;;;1.38;;
72235;SDS011;60146;52.498;13.462;2023-07-13T08:20:56;1.85;;;1.00;;
72235;SDS011;60146;52.498;13.462;2023-07-13T08:23:21;4.15;;;1.45;;
72235;SDS011;60146;52.498;13.462;2023-07-13T08:25:53;3.50;;;1.50;;
72235;SDS011;60146;52.498;13.462;2023-07-13T08:28:22;2.05;;;1.23;;
72235;SDS011;60146;52.498;13.462;2023-07-13T08:30:47;3.08;;;1.10;;
72235;SDS011;60146;52.498;13.462;2023-07-13T08:33:16;2.10;;;1.35;;
72235;SDS011;60146;52.498;13.462;2023-07-13T08:35:45;2.17;;;0.93;;
72235;SDS011;60146;52.498;13.462;2023-07-13T08:38:11;2.63;;;1.10;;
72235;SDS011;60146;52.498;13.462;2023-07-13T08:40:37;3.55;;;1.48;;
72235;SDS011;60146;52.498;13.462;2023-07-13T08:43:04;2.22;;;1.10;;
72235;SDS011;60146;52.498;13.462;2023-07-13T08:48:31;2.88;;;1.30;;
72235;SDS011;60146;52.498;13.462;2023-07-13T08:53:47;3.65;;;1.38;;
72235;SDS011;60146;52.498;13.462;2023-07-13T08:56:23;3.47;;;1.80;;
72235;SDS011;60146;52.498;13.462;2023-07-13T08:58:53;2.22;;;1.38;;
72235;SDS011;60146;52.498;13.462;2023-07-13T09:01:30;3.72;;;1.23;;
72235;SDS011;60146;52.498;13.462;2023-07-13T09:06:43;4.18;;;1.35;;
72235;SDS011;60146;52.498;13.462;2023-07-13T09:12:12;2.75;;;1.02;;
72235;SDS011;60146;52.498;13.462;2023-07-13T09:14:56;3.05;;;1.10;;
72235;SDS011;60146;52.498;13.462;2023-07-13T09:17:25;2.53;;;1.25;;
72235;SDS011;60146;52.498;13.462;2023-07-13T09:19:58;3.72;;;1.25;;
72235;SDS011;60146;52.498;13.462;2023-07-13T09:22:44;4.20;;;1.13;;
72235;SDS011;60146;52.498;13.462;2023-07-13T09:27:38;2.22;;;0.82;;
72235;SDS011;60146;52.498;13.462;2023-07-13T09:32:35;2.28;;;1.00;;
72235;SDS011;60146;52.498;13.462;2023-07-13T09:35:07;2.67;;;1.08;;
72235;SDS011;60146;52.498;13.462;2023-07-13T09:37:36;3.92;;;1.30;;
72235;SDS011;60146;52.498;13.462;2023-07-13T09:40:02;2.53;;;1.10;;
72235;SDS011;60146;52.498;13.462;2023-07-13T09:42:30;3.47;;;1.20;;
72235;SDS011;60146;52.498;13.462;2023-07-13T09:45:01;3.83;;;1.00;;
72235;SDS011;60146;52.498;13.462;2023-07-13T09:47:31;2.25;;;1.20;;
72235;SDS011;60146;52.498;13.462;2023-07-13T09:50:08;4.35;;;1.08;;
72235;SDS011;60146;52.498;13.462;2023-07-13T09:52:44;4.30;;;1.30;;
72235;SDS011;60146;52.498;13.462;2023-07-13T09:55:25;3.20;;;1.60;;
72235;SDS011;60146;52.498;13.462;2023-07-13T09:57:53;3.47;;;1.60;;
72235;SDS011;60146;52.498;13.462;2023-07-13T10:00:26;8.98;;;2.22;;
72235;SDS011;60146;52.498;13.462;2023-07-13T10:03:00;4.50;;;1.75;;
72235;SDS011;60146;52.498;13.462;2023-07-13T10:05:37;2.72;;;1.67;;
72235;SDS011;60146;52.498;13.462;2023-07-13T10:08:14;2.70;;;1.60;;
72235;SDS011;60146;52.498;13.462;2023-07-13T10:10:43;3.20;;;2.13;;
72235;SDS011;60146;52.498;13.462;2023-07-13T10:15:56;4.15;;;1.90;;
72235;SDS011;60146;52.498;13.462;2023-07-13T10:18:24;3.35;;;2.30;;
72235;SDS011;60146;52.498;13.462;2023-07-13T10:20:53;6.43;;;2.30;;
72235;SDS011;60146;52.498;13.462;2023-07-13T10:23:23;5.13;;;1.92;;
72235;SDS011;60146;52.498;13.462;2023-07-13T10:25:54;5.15;;;1.85;;
72235;SDS011;60146;52.498;13.462;2023-07-13T10:28:30;2.97;;;1.73;;
72235;SDS011;60146;52.498;13.462;2023-07-13T10:31:00;2.40;;;1.73;;
72235;SDS011;60146;52.498;13.462;2023-07-13T10:33:30;5.43;;;2.10;;
72235;SDS011;60146;52.498;13.462;2023-07-13T10:38:55;2.38;;;1.55;;
72235;SDS011;60146;52.498;13.462;2023-07-13T10:41:24;4.28;;;1.70;;
72235;SDS011;60146;52.498;13.462;2023-07-13T10:43:53;3.30;;;1.70;;
72235;SDS011;60146;52.498;13.462;2023-07-13T10:46:20;4.80;;;1.90;;
72235;SDS011;60146;52.498;13.462;2023-07-13T10:48:49;4.80;;;1.85;;
72235;SDS011;60146;52.498;13.462;2023-07-13T10:51:19;4.38;;;1.67;;
72235;SDS011;60146;52.498;13.462;2023-07-13T10:53:46;3.45;;;1.90;;
72235;SDS011;60146;52.498;13.462;2023-07-13T10:56:22;4.40;;;1.80;;
72235;SDS011;60146;52.498;13.462;2023-07-13T10:59:10;5.35;;;1.60;;
72235;SDS011;60146;52.498;13.462;2023-07-13T11:02:25;3.15;;;1.77;;
72235;SDS011;60146;52.498;13.462;2023-07-13T11:04:39;7.95;;;1.95;;
72235;SDS011;60146;52.498;13.462;2023-07-13T11:07:26;3.58;;;1.60;;
72235;SDS011;60146;52.498;13.462;2023-07-13T11:09:55;5.07;;;1.63;;
72235;SDS011;60146;52.498;13.462;2023-07-13T11:22:50;7.03;;;1.80;;
72235;SDS011;60146;52.498;13.462;2023-07-13T11:25:21;3.38;;;1.67;;
72235;SDS011;60146;52.498;13.462;2023-07-13T11:28:05;3.78;;;1.67;;
72235;SDS011;60146;52.498;13.462;2023-07-13T11:35:40;3.25;;;1.25;;
72235;SDS011;60146;52.498;13.462;2023-07-13T11:38:22;4.10;;;1.77;;
72235;SDS011;60146;52.498;13.462;2023-07-13T11:40:53;2.75;;;1.60;;
72235;SDS011;60146;52.498;13.462;2023-07-13T11:43:20;3.03;;;1.60;;
72235;SDS011;60146;52.498;13.462;2023-07-13T11:45:48;3.97;;;1.50;;
72235;SDS011;60146;52.498;13.462;2023-07-13T11:50:51;4.80;;;1.70;;
72235;SDS011;60146;52.498;13.462;2023-07-13T11:53:19;4.32;;;1.55;;
72235;SDS011;60146;52.498;13.462;2023-07-13T11:55:45;2.33;;;1.45;;
72235;SDS011;60146;52.498;13.462;2023-07-13T11:58:19;4.32;;;1.88;;
72235;SDS011;60146;52.498;13.462;2023-07-13T12:00:49;2.70;;;1.60;;
72235;SDS011;60146;52.498;13.462;2023-07-13T12:06:39;3.63;;;1.60;;
72235;SDS011;60146;52.498;13.462;2023-07-13T12:09:11;3.25;;;1.33;;
72235;SDS011;60146;52.498;13.462;2023-07-13T12:11:38;6.38;;;1.80;;
72235;SDS011;60146;52.498;13.462;2023-07-13T12:14:06;6.20;;;1.60;;
72235;SDS011;60146;52.498;13.462;2023-07-13T12:16:37;2.83;;;1.60;;
72235;SDS011;60146;52.498;13.462;2023-07-13T12:19:02;3.45;;;1.60;;
72235;SDS011;60146;52.498;13.462;2023-07-13T12:21:32;5.05;;;1.48;;
72235;SDS011;60146;52.498;13.462;2023-07-13T12:23:59;4.05;;;1.50;;
72235;SDS011;60146;52.498;13.462;2023-07-13T12:26:27;2.33;;;1.48;;
72235;SDS011;60146;52.498;13.462;2023-07-13T12:28:54;2.45;;;1.40;;
72235;SDS011;60146;52.498;13.462;2023-07-13T12:33:55;2.72;;;1.60;;
72235;SDS011;60146;52.498;13.462;2023-07-13T12:36:22;2.95;;;1.55;;
72235;SDS011;60146;52.498;13.462;2023-07-13T12:38:47;5.90;;;1.90;;
72235;SDS011;60146;52.498;13.462;2023-07-13T12:41:12;6.63;;;1.80;;
72235;SDS011;60146;52.498;13.462;2023-07-13T12:43:40;4.07;;;1.52;;
72235;SDS011;60146;52.498;13.462;2023-07-13T12:46:16;4.13;;;1.30;;
72235;SDS011;60146;52.498;13.462;2023-07-13T12:48:47;2.75;;;1.40;;
72235;SDS011;60146;52.498;13.462;2023-07-13T12:51:14;2.95;;;1.30;;
72235;SDS011;60146;52.498;13.462;2023-07-13T12:53:48;3.47;;;1.50;;
72235;SDS011;60146;52.498;13.462;2023-07-13T12:56:22;4.45;;;1.50;;
72235;SDS011;60146;52.498;13.462;2023-07-13T12:58:49;3.45;;;1.42;;
72235;SDS011;60146;52.498;13.462;2023-07-13T13:01:20;3.40;;;1.40;;
72235;SDS011;60146;52.498;13.462;2023-07-13T13:03:48;3.00;;;1.10;;
72235;SDS011;60146;52.498;13.462;2023-07-13T13:06:21;4.93;;;1.60;;
72235;SDS011;60146;52.498;13.462;2023-07-13T13:08:50;4.95;;;1.40;;
72235;SDS011;60146;52.498;13.462;2023-07-13T13:11:20;3.40;;;1.35;;
72235;SDS011;60146;52.498;13.462;2023-07-13T13:13:48;6.72;;;1.40;;
72235;SDS011;60146;52.498;13.462;2023-07-13T13:18:44;2.72;;;1.25;;
72235;SDS011;60146;52.498;13.462;2023-07-13T13:21:10;2.65;;;1.45;;
72235;SDS011;60146;52.498;13.462;2023-07-13T13:23:36;2.95;;;1.40;;
72235;SDS011;60146;52.498;13.462;2023-07-13T13:26:02;4.18;;;1.20;;
72235;SDS011;60146;52.498;13.462;2023-07-13T13:28:27;1.15;;;0.90;;
72235;SDS011;60146;52.498;13.462;2023-07-13T13:30:52;1.48;;;0.90;;
72235;SDS011;60146;52.498;13.462;2023-07-13T13:33:19;2.97;;;1.13;;
72235;SDS011;60146;52.498;13.462;2023-07-13T13:38:12;3.55;;;1.38;;
72235;SDS011;60146;52.498;13.462;2023-07-13T13:40:39;3.17;;;1.23;;
72235;SDS011;60146;52.498;13.462;2023-07-13T13:43:16;3.58;;;1.40;;
72235;SDS011;60146;52.498;13.462;2023-07-13T13:45:43;2.45;;;1.45;;
72235;SDS011;60146;52.498;13.462;2023-07-13T13:48:17;3.25;;;1.30;;
72235;SDS011;60146;52.498;13.462;2023-07-13T13:50:44;3.22;;;1.23;;
72235;SDS011;60146;52.498;13.462;2023-07-13T13:53:11;4.85;;;1.17;;
72235;SDS011;60146;52.498;13.462;2023-07-13T13:55:38;2.85;;;1.20;;
72235;SDS011;60146;52.498;13.462;2023-07-13T13:58:06;3.65;;;1.33;;
72235;SDS011;60146;52.498;13.462;2023-07-13T14:00:35;3.63;;;1.10;;
72235;SDS011;60146;52.498;13.462;2023-07-13T14:03:01;2.35;;;1.13;;
72235;SDS011;60146;52.498;13.462;2023-07-13T14:05:27;2.45;;;1.48;;
72235;SDS011;60146;52.498;13.462;2023-07-13T14:07:53;2.05;;;1.02;;
72235;SDS011;60146;52.498;13.462;2023-07-13T14:10:20;2.88;;;1.10;;
72235;SDS011;60146;52.498;13.462;2023-07-13T14:12:47;1.58;;;1.00;;
72235;SDS011;60146;52.498;13.462;2023-07-13T14:15:20;2.70;;;1.10;;
72235;SDS011;60146;52.498;13.462;2023-07-13T14:17:48;3.85;;;1.30;;
72235;SDS011;60146;52.498;13.462;2023-07-13T14:20:15;7.05;;;3.72;;
72235;SDS011;60146;52.498;13.462;2023-07-13T14:22:41;5.28;;;1.20;;
72235;SDS011;60146;52.498;13.462;2023-07-13T14:25:13;2.88;;;1.20;;
72235;SDS011;60146;52.498;13.462;2023-07-13T14:27:40;3.95;;;1.00;;
72235;SDS011;60146;52.498;13.462;2023-07-13T14:30:16;4.85;;;1.15;;
72235;SDS011;60146;52.498;13.462;2023-07-13T14:32:43;5.15;;;1.17;;
72235;SDS011;60146;52.498;13.462;2023-07-13T14:35:13;3.17;;;1.10;;
72235;SDS011;60146;52.498;13.462;2023-07-13T14:40:30;2.65;;;1.23;;
72235;SDS011;60146;52.498;13.462;2023-07-13T14:42:56;4.05;;;1.40;;
72235;SDS011;60146;52.498;13.462;2023-07-13T14:45:22;4.82;;;1.35;;
72235;SDS011;60146;52.498;13.462;2023-07-13T14:47:48;7.07;;;1.20;;
72235;SDS011;60146;52.498;13.462;2023-07-13T14:50:15;3.83;;;1.10;;
72235;SDS011;60146;52.498;13.462;2023-07-13T14:52:45;3.78;;;1.20;;
72235;SDS011;60146;52.498;13.462;2023-07-13T14:55:16;6.35;;;1.55;;
72235;SDS011;60146;52.498;13.462;2023-07-13T14:57:43;3.28;;;1.23;;
72235;SDS011;60146;52.498;13.462;2023-07-13T15:00:15;4.65;;;1.33;;
72235;SDS011;60146;52.498;13.462;2023-07-13T15:02:47;2.55;;;1.10;;
72235;SDS011;60146;52.498;13.462;2023-07-13T15:05:16;7.20;;;1.70;;
72235;SDS011;60146;52.498;13.462;2023-07-13T15:07:43;4.88;;;1.20;;
72235;SDS011;60146;52.498;13.462;2023-07-13T15:10:13;1.77;;;1.08;;
72235;SDS011;60146;52.498;13.462;2023-07-13T15:12:43;2.42;;;1.20;;
72235;SDS011;60146;52.498;13.462;2023-07-13T15:15:08;7.47;;;1.63;;
72235;SDS011;60146;52.498;13.462;2023-07-13T15:17:38;3.90;;;0.90;;
72235;SDS011;60146;52.498;13.462;2023-07-13T15:20:27;2.92;;;1.00;;
72235;SDS011;60146;52.498;13.462;2023-07-13T15:22:55;5.05;;;1.05;;
72235;SDS011;60146;52.498;13.462;2023-07-13T15:25:22;4.72;;;1.00;;
72235;SDS011;60146;52.498;13.462;2023-07-13T15:27:50;4.82;;;0.85;;
72235;SDS011;60146;52.498;13.462;2023-07-13T15:30:16;2.78;;;0.88;;
72235;SDS011;60146;52.498;13.462;2023-07-13T15:32:42;4.40;;;0.95;;